Time;durP1;ratioP1;P1;durP2;ratioP2;P2;SDS_P1;SDS_P2;PMS_P1;PMS_P2;Temp;Humidity;BMP_temperature;BMP_pressure;BME280_temperature;BME280_humidity;BME280_pressure;Samples;Min_cycle;Max_cycle;Signal;HPM_P1;HPM_P2
2023/06/29 00:03:05;;;;;;;0.10;0.10;;;;;;;27.88;100.00;101647.44;10407321;28;20091;-84
2023/06/29 00:08:07;;;;;;;0.45;0.20;;;;;;;28.16;100.00;101653.50;10417125;28;20037;-84
2023/06/29 00:13:09;;;;;;;0.32;0.10;;;;;;;27.72;100.00;101650.63;10428547;28;20045;-85
2023/06/29 00:18:12;;;;;;;0.73;0.32;;;;;;;26.92;100.00;101654.91;10415018;28;20052;-85
2023/06/29 00:23:14;;;;;;;0.10;0.10;;;;;;;27.23;100.00;101648.66;10392510;28;20033;-84
2023/06/29 00:28:16;;;;;;;0.13;0.10;;;;;;;27.03;100.00;101645.78;10397556;28;20037;-84
2023/06/29 00:33:17;;;;;;;0.10;0.10;;;;;;;27.40;100.00;101642.78;10399352;28;20045;-84
2023/06/29 00:38:19;;;;;;;1.02;0.30;;;;;;;27.30;100.00;101633.47;10397058;28;20064;-84
2023/06/29 00:43:20;;;;;;;0.00;0.00;;;;;;;27.67;100.00;101626.94;10423943;28;20095;-85
2023/06/29 00:48:22;;;;;;;0.20;0.10;;;;;;;27.78;100.00;101617.75;10431023;28;20053;-85
2023/06/29 00:53:24;;;;;;;0.10;0.10;;;;;;;27.45;100.00;101623.31;10413539;28;20053;-84
2023/06/29 00:58:26;;;;;;;0.00;0.00;;;;;;;27.33;100.00;101611.31;10390721;28;20041;-85
2023/06/29 01:03:28;;;;;;;0.22;0.10;;;;;;;27.76;100.00;101615.16;10424475;28;20385;-84
2023/06/29 01:08:36;;;;;;;0.08;0.08;;;;;;;27.84;100.00;101605.16;10413876;28;20095;-84
2023/06/29 01:13:44;;;;;;;0.15;0.10;;;;;;;27.37;100.00;101607.63;10413754;28;20038;-85
2023/06/29 01:18:47;;;;;;;0.32;0.17;;;;;;;27.86;100.00;101611.28;10414008;28;20049;-84
2023/06/29 01:23:54;;;;;;;0.32;0.22;;;;;;;27.40;100.00;101608.41;10412721;28;20111;-85
2023/06/29 01:28:56;;;;;;;0.95;0.40;;;;;;;27.64;100.00;101599.72;10398975;28;20052;-84
2023/06/29 01:33:58;;;;;;;0.13;0.13;;;;;;;27.36;100.00;101598.84;10409554;28;20609;-85
2023/06/29 01:39:05;;;;;;;0.10;0.10;;;;;;;27.83;100.00;101590.19;10391817;28;20045;-84
2023/06/29 01:44:11;;;;;;;1.00;0.63;;;;;;;27.71;100.00;101596.78;10411307;28;20041;-84
2023/06/29 01:49:13;;;;;;;0.30;0.15;;;;;;;27.20;100.00;101590.56;10411218;28;20099;-84
2023/06/29 01:54:15;;;;;;;0.10;0.10;;;;;;;27.47;100.00;101592.38;10390869;28;20063;-85
2023/06/29 01:59:17;;;;;;;0.10;0.10;;;;;;;27.42;100.00;101600.47;10411291;28;20045;-85
2023/06/29 02:04:18;;;;;;;0.00;0.00;;;;;;;26.87;100.00;101588.09;10430460;28;20477;-84
2023/06/29 02:09:20;;;;;;;0.00;0.00;;;;;;;26.73;100.00;101583.19;10394989;28;20088;-84
2023/06/29 02:14:22;;;;;;;0.00;0.00;;;;;;;26.49;100.00;101586.63;10410155;28;20104;-85
2023/06/29 02:19:24;;;;;;;0.22;0.10;;;;;;;26.33;100.00;101586.19;10417547;28;20507;-85
2023/06/29 02:24:25;;;;;;;0.10;0.10;;;;;;;26.70;100.00;101577.16;10394078;28;20048;-85
2023/06/29 02:29:27;;;;;;;0.10;0.10;;;;;;;27.15;100.00;101576.63;10408936;28;20046;-84
2023/06/29 02:34:30;;;;;;;0.10;0.08;;;;;;;27.08;100.00;101575.09;10407782;28;20439;-84
2023/06/29 02:39:32;;;;;;;1.15;0.50;;;;;;;26.88;100.00;101573.13;10423082;28;20111;-84
2023/06/29 02:44:34;;;;;;;0.43;0.22;;;;;;;26.02;100.00;101581.78;10394595;28;20072;-85
2023/06/29 02:49:36;;;;;;;0.50;0.35;;;;;;;26.14;100.00;101573.53;10396620;28;20049;-84
2023/06/29 02:54:39;;;;;;;0.40;0.40;;;;;;;26.44;100.00;101569.13;10409813;28;20052;-85
2023/06/29 02:59:40;;;;;;;0.10;0.10;;;;;;;26.17;100.00;101570.81;10410409;28;20057;-85
2023/06/29 03:04:42;;;;;;;0.00;0.00;;;;;;;26.45;100.00;101555.00;10406603;28;20104;-85
2023/06/29 03:09:44;;;;;;;0.00;0.00;;;;;;;25.96;100.00;101556.41;10409697;28;20046;-85
2023/06/29 03:14:45;;;;;;;0.25;0.25;;;;;;;26.24;100.00;101553.88;10409115;28;20042;-85
2023/06/29 03:19:47;;;;;;;0.08;0.08;;;;;;;26.14;100.00;101549.78;10406901;28;20049;-85
2023/06/29 03:24:49;;;;;;;0.60;0.43;;;;;;;26.29;100.00;101543.16;10409182;28;20056;-85
2023/06/29 03:29:52;;;;;;;0.25;0.25;;;;;;;26.11;100.00;101534.91;10409258;28;20060;-85
2023/06/29 03:34:53;;;;;;;0.43;0.20;;;;;;;26.39;100.00;101534.06;10408486;28;20503;-85
2023/06/29 03:39:55;;;;;;;0.15;0.15;;;;;;;26.06;100.00;101530.63;10390694;28;20496;-85
2023/06/29 03:44:56;;;;;;;0.20;0.20;;;;;;;26.00;100.00;101530.81;10425230;28;20405;-85
2023/06/29 03:49:58;;;;;;;1.02;0.50;;;;;;;26.15;100.00;101527.75;10405496;28;20049;-85
2023/06/29 03:55:00;;;;;;;0.32;0.28;;;;;;;26.62;100.00;101529.00;10416864;28;20040;-85
2023/06/29 04:00:03;;;;;;;0.63;0.32;;;;;;;26.23;100.00;101528.38;10415817;28;20067;-85
2023/06/29 04:05:13;;;;;;;0.82;0.47;;;;;;;26.43;100.00;101518.97;10417860;28;20111;-87
2023/06/29 04:10:14;;;;;;;0.68;0.68;;;;;;;26.54;100.00;101510.72;10402371;28;20049;-83
2023/06/29 04:15:16;;;;;;;0.00;0.00;;;;;;;26.86;100.00;101512.34;10412566;28;20045;-83
2023/06/29 04:20:18;;;;;;;51.72;2.08;;;;;;;26.74;100.00;101512.72;10424594;28;20167;-83
2023/06/29 04:25:19;;;;;;;0.45;0.28;;;;;;;26.80;100.00;101509.91;10415852;28;20053;-84
2023/06/29 04:30:21;;;;;;;0.30;0.30;;;;;;;26.84;100.00;101506.28;10411924;28;20067;-83
2023/06/29 04:35:23;;;;;;;0.20;0.20;;;;;;;26.85;100.00;101507.97;10432469;28;20045;-83
2023/06/29 04:40:25;;;;;;;0.70;0.57;;;;;;;26.97;100.00;101498.78;10414169;28;20053;-83
2023/06/29 04:45:28;;;;;;;3.70;1.50;;;;;;;26.68;100.00;101500.56;10415296;28;20492;-83
2023/06/29 04:50:35;;;;;;;0.17;0.10;;;;;;;26.82;100.00;101499.28;10414795;28;20053;-83
2023/06/29 04:55:38;;;;;;;0.28;0.28;;;;;;;27.20;100.00;101503.28;10398985;28;20073;-83
2023/06/29 05:00:39;;;;;;;61.78;53.97;;;;;;;27.00;100.00;101503.09;10415723;28;20045;-83
2023/06/29 05:05:41;;;;;;;751.13;47.78;;;;;;;26.17;100.00;101515.38;10429591;28;20056;-83
2023/06/29 05:10:43;;;;;;;0.47;0.38;;;;;;;27.01;100.00;101499.53;10392727;28;20060;-83
2023/06/29 05:15:47;;;;;;;0.30;0.30;;;;;;;26.67;100.00;101495.34;10415104;28;20037;-84
2023/06/29 05:20:49;;;;;;;0.38;0.38;;;;;;;27.17;100.00;101500.75;10403169;28;20045;-83
2023/06/29 05:25:51;;;;;;;0.43;0.28;;;;;;;27.07;100.00;101491.38;10418901;28;20037;-83
2023/06/29 05:30:52;;;;;;;0.77;0.47;;;;;;;26.88;100.00;101489.38;10414335;28;20051;-83
2023/06/29 05:35:54;;;;;;;1.65;0.43;;;;;;;26.69;100.00;101485.59;10422332;28;20034;-83
2023/06/29 05:40:56;;;;;;;2.45;1.65;;;;;;;26.81;100.00;101482.56;10430925;28;20051;-83
2023/06/29 05:46:02;;;;;;;0.20;0.20;;;;;;;27.30;100.00;101480.03;10430889;28;20076;-84
2023/06/29 05:51:04;;;;;;;0.35;0.28;;;;;;;26.99;100.00;101477.59;10413789;28;20046;-83
2023/06/29 05:56:06;;;;;;;0.70;0.65;;;;;;;27.35;100.00;101471.94;10429981;28;20408;-83
2023/06/29 06:01:07;;;;;;;0.30;0.22;;;;;;;26.69;100.00;101469.72;10414095;28;20053;-84
2023/06/29 06:06:09;;;;;;;0.13;0.13;;;;;;;27.18;100.00;101476.03;10413774;28;20088;-83
2023/06/29 06:11:11;;;;;;;0.85;0.68;;;;;;;27.16;100.00;101467.28;10411474;28;20057;-83
2023/06/29 06:16:12;;;;;;;1.92;1.38;;;;;;;27.02;100.00;101467.78;10412089;28;20041;-84
2023/06/29 06:21:14;;;;;;;0.68;0.60;;;;;;;26.96;100.00;101469.75;10412122;28;20037;-84
2023/06/29 06:26:16;;;;;;;1.85;1.63;;;;;;;26.89;100.00;101469.97;10412424;28;20392;-83
2023/06/29 06:31:17;;;;;;;2.90;1.48;;;;;;;27.64;100.00;101464.75;10396243;28;20052;-83
2023/06/29 06:36:34;;;;;;;1.50;1.08;;;;;;;26.56;100.00;101467.47;10408294;28;20124;-83
2023/06/29 06:41:36;;;;;;;3.28;1.30;;;;;;;27.21;100.00;101475.03;10410535;28;20060;-84
2023/06/29 06:46:37;;;;;;;1.02;0.88;;;;;;;26.87;100.00;101471.78;10413974;28;20377;-84
2023/06/29 06:51:39;;;;;;;1.35;1.05;;;;;;;27.29;100.00;101467.72;10414009;28;20052;-83
2023/06/29 06:56:41;;;;;;;0.82;0.80;;;;;;;27.46;100.00;101468.94;10395591;28;20047;-84
2023/06/29 07:01:43;;;;;;;3.08;1.20;;;;;;;27.31;100.00;101467.66;10387272;28;20045;-83
2023/06/29 07:06:46;;;;;;;2.17;1.33;;;;;;;27.13;100.00;101470.03;10412090;28;20060;-85
2023/06/29 07:11:48;;;;;;;1.58;0.95;;;;;;;27.64;100.00;101465.59;10405483;28;20045;-85
2023/06/29 07:16:50;;;;;;;2.38;0.68;;;;;;;27.62;100.00;101454.22;10407343;28;20049;-85
2023/06/29 07:21:52;;;;;;;0.88;0.57;;;;;;;27.42;100.00;101475.22;10421539;28;20409;-85
2023/06/29 07:26:56;;;;;;;2.53;1.30;;;;;;;27.16;100.00;101475.19;10401232;28;20045;-84
2023/06/29 07:31:58;;;;;;;4.85;1.48;;;;;;;27.96;100.00;101457.38;10416577;28;20045;-85
2023/06/29 07:37:00;;;;;;;1.80;1.45;;;;;;;28.59;100.00;101446.06;10399369;28;20544;-85
2023/06/29 07:42:01;;;;;;;2.53;1.85;;;;;;;27.33;100.00;101464.03;10416316;28;20107;-86
2023/06/29 07:47:04;;;;;;;1.40;1.30;;;;;;;26.95;100.00;101468.91;10416156;28;20056;-85
2023/06/29 07:52:06;;;;;;;1.85;1.55;;;;;;;27.86;100.00;101451.53;10431736;28;20065;-85
2023/06/29 07:57:08;;;;;;;2.25;1.08;;;;;;;28.00;100.00;101449.22;10411616;28;20044;-85
2023/06/29 08:02:13;;;;;;;2.08;1.20;;;;;;;27.58;100.00;101452.59;10412565;28;20591;-85
2023/06/29 08:07:14;;;;;;;2.90;1.67;;;;;;;27.61;100.00;101448.97;10398239;28;20041;-85
2023/06/29 08:12:16;;;;;;;1.20;1.05;;;;;;;27.29;100.00;101451.00;10415456;28;20049;-85
2023/06/29 08:17:18;;;;;;;3.88;2.28;;;;;;;28.33;100.00;101445.34;10413546;28;20403;-84
2023/06/29 08:22:20;;;;;;;4.05;2.40;;;;;;;27.30;100.00;101447.41;10413920;28;20446;-85
2023/06/29 08:27:22;;;;;;;1.48;1.27;;;;;;;28.35;100.00;101427.59;10405392;28;20596;-85
2023/06/29 08:32:23;;;;;;;3.03;0.90;;;;;;;28.18;100.00;101431.78;10423623;28;20046;-85
2023/06/29 08:37:26;;;;;;;1.48;1.38;;;;;;;28.57;100.00;101432.88;10420777;28;20069;-85
2023/06/29 08:42:28;;;;;;;1.45;1.30;;;;;;;28.20;100.00;101425.56;10408023;28;20065;-85
2023/06/29 08:47:32;;;;;;;2.20;1.70;;;;;;;28.58;100.00;101417.81;10405550;28;20059;-86
2023/06/29 08:52:38;;;;;;;1.95;1.33;;;;;;;28.11;100.00;101419.69;10414476;28;20065;-86
2023/06/29 08:57:40;;;;;;;3.45;2.15;;;;;;;28.24;100.00;101424.53;10395770;28;20045;-84
2023/06/29 09:02:43;;;;;;;5.60;2.92;;;;;;;28.31;100.00;101426.00;10409039;28;20136;-87
2023/06/29 09:07:45;;;;;;;6.80;3.05;;;;;;;28.39;100.00;101426.56;10422667;28;20394;-87
2023/06/29 09:12:47;;;;;;;3.05;1.90;;;;;;;28.12;100.00;101426.72;10409577;28;20064;-85
2023/06/29 09:17:54;;;;;;;3.55;3.25;;;;;;;28.54;100.00;101416.25;10426508;28;20774;-86
2023/06/29 09:23:14;;;;;;;2.55;1.67;;;;;;;28.65;100.00;101414.00;10423077;28;20073;-85
2023/06/29 09:28:17;;;;;;;2.85;1.65;;;;;;;29.53;100.00;101415.50;10404474;28;20084;-85
2023/06/29 09:33:37;;;;;;;2.95;1.48;;;;;;;29.33;100.00;101410.25;10412256;28;20042;-86
2023/06/29 09:38:39;;;;;;;3.35;1.92;;;;;;;28.45;100.00;101407.75;10415193;28;20164;-84
2023/06/29 09:43:41;;;;;;;1.40;1.10;;;;;;;29.68;100.00;101411.25;10414484;28;20147;-83
2023/06/29 09:48:47;;;;;;;3.13;1.60;;;;;;;31.04;100.00;101402.91;10398733;28;20053;-83
2023/06/29 09:53:51;;;;;;;1.02;0.95;;;;;;;31.54;100.00;101395.81;10424081;28;20037;-84
2023/06/29 09:58:55;;;;;;;1.23;1.08;;;;;;;31.78;100.00;101389.16;10409969;28;20051;-84
2023/06/29 10:03:57;;;;;;;2.05;1.13;;;;;;;30.70;100.00;101390.44;10430169;28;20506;-83
2023/06/29 10:09:00;;;;;;;2.05;1.25;;;;;;;31.21;100.00;101388.72;10417504;28;20037;-83
2023/06/29 10:14:04;;;;;;;1.42;1.20;;;;;;;31.63;100.00;101380.19;10416753;28;20045;-82
2023/06/29 10:19:22;;;;;;;2.08;1.23;;;;;;;31.84;100.00;101382.63;10411304;28;20077;-82
2023/06/29 10:24:35;;;;;;;2.78;0.80;;;;;;;31.44;100.00;101384.81;10398665;28;20045;-82
2023/06/29 10:29:50;;;;;;;3.28;2.80;;;;;;;30.72;100.00;101386.84;10412425;28;20052;-84
2023/06/29 10:35:01;;;;;;;1.83;1.45;;;;;;;31.92;100.00;101374.19;10413516;28;20045;-84
2023/06/29 10:40:13;;;;;;;1.27;0.63;;;;;;;31.95;100.00;101376.66;10397884;28;20077;-86
2023/06/29 10:45:18;;;;;;;0.93;0.85;;;;;;;32.05;100.00;101379.69;10430765;28;20705;-83
2023/06/29 10:50:21;;;;;;;2.72;2.13;;;;;;;32.19;100.00;101371.75;10418187;28;20087;-82
2023/06/29 10:55:25;;;;;;;5.13;0.63;;;;;;;32.55;100.00;101365.22;10426354;28;20119;-82
2023/06/29 11:00:27;;;;;;;1.85;1.05;;;;;;;32.35;100.00;101363.72;10415941;28;20043;-82
2023/06/29 11:05:33;;;;;;;0.85;0.70;;;;;;;31.90;100.00;101366.31;10419798;28;20042;-83
2023/06/29 11:10:35;;;;;;;1.88;0.80;;;;;;;32.20;100.00;101367.28;10414619;28;20057;-85
2023/06/29 11:15:38;;;;;;;1.65;0.82;;;;;;;30.59;100.00;101370.66;10393178;28;20129;-84
2023/06/29 11:20:39;;;;;;;1.35;1.15;;;;;;;31.13;100.00;101363.38;10414962;28;20077;-84
2023/06/29 11:25:41;;;;;;;3.42;0.95;;;;;;;30.81;100.00;101365.06;10414196;28;20496;-83
2023/06/29 11:30:43;;;;;;;1.67;1.00;;;;;;;31.84;100.00;101365.78;10429067;28;20908;-82
2023/06/29 11:35:47;;;;;;;1.25;0.75;;;;;;;30.67;100.00;101365.78;10407406;28;20113;-82
2023/06/29 11:40:49;;;;;;;1.33;0.60;;;;;;;32.66;100.00;101353.03;10425024;28;20045;-82
2023/06/29 11:45:51;;;;;;;0.77;0.55;;;;;;;31.76;100.00;101347.59;10409125;28;20037;-82
2023/06/29 11:50:59;;;;;;;4.90;1.63;;;;;;;31.98;100.00;101351.69;10408896;28;20053;-81
2023/06/29 11:56:00;;;;;;;2.47;1.38;;;;;;;31.61;100.00;101352.78;10383959;28;20045;-82
2023/06/29 12:01:02;;;;;;;2.17;0.90;;;;;;;31.49;100.00;101342.81;10408742;28;20116;-80
2023/06/29 12:06:04;;;;;;;0.68;0.68;;;;;;;31.29;100.00;101350.13;10424630;28;20476;-80
2023/06/29 12:11:14;;;;;;;2.45;0.70;;;;;;;30.88;100.00;101345.19;10428516;28;20041;-80
2023/06/29 12:16:17;;;;;;;5.35;2.53;;;;;;;31.32;100.00;101335.78;10414912;28;20038;-83
2023/06/29 12:21:23;;;;;;;8.68;1.00;;;;;;;31.44;100.00;101337.75;10401307;28;20045;-80
2023/06/29 12:26:25;;;;;;;1.27;1.17;;;;;;;32.33;100.00;101338.13;10412968;28;20038;-81
2023/06/29 12:31:27;;;;;;;2.70;1.80;;;;;;;31.50;100.00;101336.56;10417300;28;20535;-84
2023/06/29 12:36:30;;;;;;;0.52;0.20;;;;;;;31.12;100.00;101336.84;10418717;28;20507;-84
2023/06/29 12:41:33;;;;;;;475.35;157.40;;;;;;;31.16;100.00;101333.94;10419815;28;20042;-85
2023/06/29 12:46:34;;;;;;;0.90;0.85;;;;;;;30.15;100.00;101334.72;10418170;28;20050;-85
2023/06/29 12:51:36;;;;;;;0.90;0.38;;;;;;;30.85;100.00;101326.75;10419184;28;20056;-85
2023/06/29 12:56:39;;;;;;;0.77;0.70;;;;;;;30.19;100.00;101326.50;10412518;28;20044;-82
2023/06/29 13:01:41;;;;;;;2.65;0.82;;;;;;;30.79;100.00;101329.72;10430662;28;20045;-85
2023/06/29 13:06:42;;;;;;;0.80;0.73;;;;;;;30.22;100.00;101330.81;10389738;28;20045;-86
2023/06/29 13:11:44;;;;;;;0.55;0.55;;;;;;;31.03;100.00;101319.56;10433656;28;20057;-82
2023/06/29 13:16:46;;;;;;;1.33;0.68;;;;;;;30.69;100.00;101324.00;10430309;28;20649;-83
2023/06/29 13:21:48;;;;;;;2.28;0.63;;;;;;;31.64;100.00;101315.34;10424569;28;20434;-82
2023/06/29 13:26:50;;;;;;;2.65;1.52;;;;;;;31.51;100.00;101314.31;10430503;28;20785;-82
2023/06/29 13:31:51;;;;;;;0.98;0.63;;;;;;;30.85;100.00;101318.75;10414869;28;20091;-84
2023/06/29 13:36:54;;;;;;;1.60;1.10;;;;;;;31.63;100.00;101316.28;10434987;28;20132;-83
2023/06/29 13:41:56;;;;;;;1.08;0.85;;;;;;;31.20;100.00;101313.34;10429424;28;20084;-83
2023/06/29 13:46:58;;;;;;;0.68;0.68;;;;;;;31.56;100.00;101298.09;10430984;28;20080;-83
2023/06/29 13:52:01;;;;;;;0.65;0.63;;;;;;;30.87;100.00;101308.88;10397929;28;20045;-83
2023/06/29 13:57:03;;;;;;;1.20;0.95;;;;;;;29.56;100.00;101306.50;10430404;28;20041;-84
2023/06/29 14:02:08;;;;;;;3.33;1.27;;;;;;;30.93;100.00;101305.91;10401726;28;20059;-83
2023/06/29 14:07:10;;;;;;;3.45;1.98;;;;;;;30.54;100.00;101307.06;10390115;28;20123;-85
2023/06/29 14:12:12;;;;;;;3.88;1.42;;;;;;;31.61;100.00;101296.84;10409562;28;20064;-85
2023/06/29 14:17:18;;;;;;;2.65;1.92;;;;;;;31.12;100.00;101294.28;10426340;28;20128;-86
2023/06/29 14:22:20;;;;;;;4.07;1.13;;;;;;;29.89;100.00;101297.00;10410382;28;20480;-87
2023/06/29 14:27:22;;;;;;;3.38;1.27;;;;;;;29.87;100.00;101297.06;10425643;28;20053;-87
2023/06/29 14:32:24;;;;;;;2.28;2.08;;;;;;;31.01;100.00;101278.88;10399726;28;20053;-88
2023/06/29 14:37:28;;;;;;;2.45;1.60;;;;;;;31.37;100.00;101287.59;10408704;28;20509;-85
2023/06/29 14:42:30;;;;;;;5.35;2.22;;;;;;;30.07;100.00;101285.47;10420562;28;20055;-87
2023/06/29 14:47:32;;;;;;;2.88;2.25;;;;;;;30.14;100.00;101285.16;10408743;28;20555;-87
2023/06/29 14:52:34;;;;;;;4.82;2.15;;;;;;;30.25;100.00;101281.94;10408464;28;20052;-86
2023/06/29 14:57:36;;;;;;;6.30;1.85;;;;;;;29.56;100.00;101273.81;10427274;28;20029;-86
2023/06/29 15:02:37;;;;;;;2.20;1.80;;;;;;;29.41;100.00;101270.97;10408189;28;20136;-88
2023/06/29 15:07:40;;;;;;;3.03;1.83;;;;;;;29.15;100.00;101268.66;10418724;28;20391;-89
2023/06/29 15:12:42;;;;;;;1.33;1.23;;;;;;;29.81;100.00;101305.34;10388948;28;20108;-86
2023/06/29 15:17:43;;;;;;;4.05;1.38;;;;;;;26.67;100.00;101336.78;10412836;28;20064;-82
2023/06/29 15:22:45;;;;;;;8.27;7.47;;;;;;;26.04;100.00;101363.47;10417900;28;20145;-83
2023/06/29 15:27:47;;;;;;;0.82;0.35;;;;;;;25.60;100.00;101364.78;10411726;28;20081;-85
2023/06/29 15:32:49;;;;;;;3.70;3.40;;;;;;;24.98;100.00;101376.19;10414125;28;20044;-84
2023/06/29 15:37:52;;;;;;;1.98;0.90;;;;;;;25.58;100.00;101366.59;10375738;28;20038;-89
2023/06/29 15:42:54;;;;;;;0.93;0.82;;;;;;;25.56;100.00;101352.63;10429162;28;20056;-87
2023/06/29 15:47:56;;;;;;;4.47;1.83;;;;;;;26.29;100.00;101342.44;10418452;28;20049;-86
2023/06/29 15:52:58;;;;;;;2.30;1.08;;;;;;;27.20;100.00;101315.50;10401389;28;20042;-83
2023/06/29 15:57:59;;;;;;;1.08;0.77;;;;;;;26.68;100.00;101301.50;10438951;28;20034;-82
2023/06/29 16:03:01;;;;;;;1.02;0.75;;;;;;;27.28;100.00;101280.81;10434437;28;20641;-82
2023/06/29 16:08:03;;;;;;;0.47;0.45;;;;;;;27.85;100.00;101283.03;10457917;28;20488;-82
2023/06/29 16:13:05;;;;;;;1.70;0.90;;;;;;;26.79;100.00;101283.50;10402081;28;20052;-82
2023/06/29 16:18:06;;;;;;;1.42;1.00;;;;;;;27.12;100.00;101284.94;10418476;28;20050;-82
2023/06/29 16:23:08;;;;;;;1.48;0.80;;;;;;;27.04;100.00;101274.69;10420191;28;20045;-82
2023/06/29 16:28:10;;;;;;;1.00;0.90;;;;;;;27.03;100.00;101280.88;10418884;28;20049;-82
2023/06/29 16:33:12;;;;;;;9.38;8.77;;;;;;;27.09;100.00;101275.34;10417645;28;20050;-84
2023/06/29 16:38:14;;;;;;;1999.90;999.90;;;;;;;26.37;100.00;101286.72;10415542;28;20061;-84
2023/06/29 16:43:15;;;;;;;1999.90;999.90;;;;;;;26.87;100.00;101275.31;10422824;28;20041;-84
2023/06/29 16:48:17;;;;;;;1999.90;999.90;;;;;;;26.77;100.00;101290.63;10431442;28;20043;-85
2023/06/29 16:53:19;;;;;;;1999.90;999.90;;;;;;;27.32;100.00;101286.84;10414247;28;20052;-83
2023/06/29 16:58:20;;;;;;;1999.90;999.90;;;;;;;28.48;100.00;101275.09;10434368;28;20038;-85
2023/06/29 17:03:22;;;;;;;2.20;1.70;;;;;;;27.29;100.00;101274.59;10404165;28;20519;-84
2023/06/29 17:08:23;;;;;;;1.52;1.10;;;;;;;27.52;100.00;101275.53;10408488;28;20037;-85
2023/06/29 17:13:25;;;;;;;1.40;1.08;;;;;;;27.47;100.00;101283.66;10412403;28;20049;-85
2023/06/29 17:18:29;;;;;;;2.17;1.60;;;;;;;27.69;100.00;101273.09;10413449;28;20573;-82
2023/06/29 17:23:31;;;;;;;2.05;1.42;;;;;;;28.10;100.00;101280.28;10423110;28;20045;-82
2023/06/29 17:28:33;;;;;;;3.60;2.08;;;;;;;27.91;100.00;101281.91;10414286;28;20136;-83
2023/06/29 17:33:34;;;;;;;1.48;1.25;;;;;;;28.23;100.00;101280.59;10414749;28;20037;-82
2023/06/29 17:38:54;;;;;;;4.50;1.63;;;;;;;28.79;100.00;101279.06;10413885;28;20049;-82
2023/06/29 17:43:56;;;;;;;2.72;1.33;;;;;;;28.43;100.00;101279.75;10413442;28;20099;-82
2023/06/29 17:48:58;;;;;;;2.72;1.92;;;;;;;28.54;100.00;101281.06;10415072;28;20041;-82
2023/06/29 17:54:00;;;;;;;2.42;1.08;;;;;;;28.72;100.00;101274.13;10413490;28;20041;-82
2023/06/29 17:59:01;;;;;;;0.82;0.80;;;;;;;28.64;100.00;101277.06;10414156;28;20546;-83
2023/06/29 18:04:03;;;;;;;3.40;0.93;;;;;;;28.45;100.00;101284.97;10413087;28;20067;-83
2023/06/29 18:09:05;;;;;;;1.33;0.90;;;;;;;28.11;100.00;101295.22;10429361;28;20088;-82
2023/06/29 18:14:07;;;;;;;0.60;0.50;;;;;;;27.73;100.00;101292.34;10412713;28;20049;-82
2023/06/29 18:19:08;;;;;;;0.93;0.38;;;;;;;28.32;100.00;101295.25;10428588;28;20423;-82
2023/06/29 18:24:10;;;;;;;0.30;0.30;;;;;;;28.86;100.00;101292.94;10398782;28;20049;-82
2023/06/29 18:29:12;;;;;;;1.95;0.95;;;;;;;27.58;100.00;101308.84;10410466;28;20049;-84
2023/06/29 18:34:13;;;;;;;0.75;0.55;;;;;;;26.96;100.00;101311.13;10411720;28;20045;-83
2023/06/29 18:39:15;;;;;;;0.57;0.43;;;;;;;25.92;100.00;101317.19;10411839;28;20077;-83
2023/06/29 18:44:18;;;;;;;0.17;0.17;;;;;;;25.72;100.00;101310.78;10411091;28;20042;-83
2023/06/29 18:49:19;;;;;;;0.57;0.30;;;;;;;26.42;100.00;101319.13;10396189;28;20392;-82
2023/06/29 18:54:39;;;;;;;0.25;0.13;;;;;;;25.54;100.00;101329.84;10412255;28;20405;-82
2023/06/29 18:59:42;;;;;;;0.52;0.15;;;;;;;25.00;100.00;101338.34;10389043;28;20042;-83
2023/06/29 19:04:44;;;;;;;0.22;0.10;;;;;;;24.54;100.00;101344.78;10412449;28;20042;-83
2023/06/29 19:09:46;;;;;;;0.00;0.00;;;;;;;24.95;100.00;101353.41;10411936;28;20132;-83
2023/06/29 19:14:48;;;;;;;0.20;0.10;;;;;;;24.03;100.00;101375.84;10394743;28;20057;-83
2023/06/29 19:19:49;;;;;;;0.10;0.10;;;;;;;24.44;100.00;101385.44;10415768;28;20056;-83
2023/06/29 19:24:51;;;;;;;0.00;0.00;;;;;;;24.29;100.00;101366.50;10419463;28;20053;-83
2023/06/29 19:29:53;;;;;;;0.10;0.00;;;;;;;24.08;100.00;101374.00;10420116;28;20122;-83
2023/06/29 19:34:54;;;;;;;0.00;0.00;;;;;;;24.27;100.00;101377.97;10419232;28;20055;-83
2023/06/29 19:39:56;;;;;;;0.00;0.00;;;;;;;25.06;100.00;101384.75;10419230;28;20125;-83
2023/06/29 19:44:58;;;;;;;0.10;0.10;;;;;;;24.51;100.00;101394.94;10435867;28;20128;-83
2023/06/29 19:49:59;;;;;;;0.00;0.00;;;;;;;24.57;100.00;101396.56;10418771;28;20042;-83
2023/06/29 19:55:01;;;;;;;0.10;0.10;;;;;;;24.58;100.00;101399.13;10419226;28;20140;-83
2023/06/29 20:00:04;;;;;;;0.00;0.00;;;;;;;24.99;100.00;101409.56;10434930;28;20045;-83
2023/06/29 20:05:25;;;;;;;0.00;0.00;;;;;;;24.94;100.00;101417.56;10419286;28;20053;-83
2023/06/29 20:10:26;;;;;;;0.00;0.00;;;;;;;24.32;100.00;101434.84;10418545;28;20037;-83
2023/06/29 20:15:28;;;;;;;0.00;0.00;;;;;;;24.29;100.00;101442.84;10419589;28;20053;-84
2023/06/29 20:20:30;;;;;;;0.00;0.00;;;;;;;23.95;100.00;101440.94;10408285;28;20045;-85
2023/06/29 20:25:41;;;;;;;0.00;0.00;;;;;;;23.62;100.00;101467.03;10402870;28;20050;-85
2023/06/29 20:30:43;;;;;;;0.00;0.00;;;;;;;23.62;100.00;101472.31;10418703;28;20076;-85
2023/06/29 20:35:45;;;;;;;0.00;0.00;;;;;;;23.52;100.00;101479.50;10418797;28;20136;-85
2023/06/29 20:40:47;;;;;;;0.00;0.00;;;;;;;23.55;100.00;101475.94;10404652;28;20049;-85
2023/06/29 20:45:49;;;;;;;0.22;0.22;;;;;;;23.04;100.00;101472.47;10402686;28;20140;-85
2023/06/29 20:50:54;;;;;;;0.00;0.00;;;;;;;22.90;100.00;101469.16;10402377;28;20403;-86
2023/06/29 20:56:15;;;;;;;0.00;0.00;;;;;;;22.40;100.00;101475.19;10434537;28;20040;-86
2023/06/29 21:01:17;;;;;;;0.00;0.00;;;;;;;21.53;100.00;101470.97;10421403;28;20399;-84
2023/06/29 21:06:19;;;;;;;0.15;0.00;;;;;;;22.30;100.00;101460.44;10384171;28;20046;-83
2023/06/29 21:11:21;;;;;;;0.00;0.00;;;;;;;22.94;100.00;101460.34;10433128;28;20118;-83
2023/06/29 21:16:23;;;;;;;0.00;0.00;;;;;;;22.40;100.00;101464.69;10416460;28;20045;-86
2023/06/29 21:21:25;;;;;;;0.00;0.00;;;;;;;22.95;100.00;101467.34;10399147;28;20516;-86
2023/06/29 21:26:27;;;;;;;0.08;0.08;;;;;;;23.42;100.00;101463.00;10398477;28;20124;-86
2023/06/29 21:31:33;;;;;;;2.20;2.10;;;;;;;22.88;100.00;101470.97;10397800;28;20059;-86
2023/06/29 21:36:35;;;;;;;0.00;0.00;;;;;;;23.22;100.00;101470.41;10393342;28;20176;-86
2023/06/29 21:41:37;;;;;;;0.00;0.00;;;;;;;23.17;100.00;101480.13;10408033;28;20049;-88
2023/06/29 21:46:38;;;;;;;0.08;0.08;;;;;;;23.09;100.00;101475.84;10405218;28;20500;-86
2023/06/29 21:51:40;;;;;;;0.00;0.00;;;;;;;23.10;100.00;101472.34;10406426;28;20037;-84
2023/06/29 21:56:44;;;;;;;0.10;0.10;;;;;;;23.91;100.00;101462.94;10401694;28;20037;-85
2023/06/29 22:01:46;;;;;;;0.00;0.00;;;;;;;23.30;100.00;101476.41;10410529;28;20119;-85
2023/06/29 22:06:47;;;;;;;0.00;0.00;;;;;;;23.80;100.00;101486.84;10391385;28;20129;-84
2023/06/29 22:11:57;;;;;;;0.00;0.00;;;;;;;24.38;100.00;101471.59;10408742;28;20057;-85
2023/06/29 22:16:58;;;;;;;0.00;0.00;;;;;;;24.42;100.00;101464.50;10412925;28;20308;-85
2023/06/29 22:22:00;;;;;;;0.00;0.00;;;;;;;24.12;100.00;101463.41;10431167;28;20049;-85
2023/06/29 22:27:03;;;;;;;0.00;0.00;;;;;;;24.21;100.00;101461.44;10398455;28;20527;-86
2023/06/29 22:32:05;;;;;;;0.00;0.00;;;;;;;24.38;100.00;101449.66;10415220;28;20076;-85
2023/06/29 22:37:07;;;;;;;0.00;0.00;;;;;;;25.21;100.00;101454.66;10398048;28;20046;-85
2023/06/29 22:42:08;;;;;;;0.00;0.00;;;;;;;25.03;100.00;101454.25;10398104;28;20053;-85
2023/06/29 22:47:10;;;;;;;0.17;0.17;;;;;;;24.90;100.00;101452.84;10414439;28;20045;-85
2023/06/29 22:52:12;;;;;;;0.00;0.00;;;;;;;24.45;100.00;101442.50;10405893;28;20056;-85
2023/06/29 22:57:13;;;;;;;0.45;0.10;;;;;;;24.88;100.00;101454.63;10414017;28;20060;-85